Time;durP1;ratioP1;P1;durP2;ratioP2;P2;SDS_P1;SDS_P2;PMS_P1;PMS_P2;Temp;Humidity;BMP_temperature;BMP_pressure;BME280_temperature;BME280_humidity;BME280_pressure;Samples;Min_cycle;Max_cycle;Signal;HPM_P1;HPM_P2
2022/08/07 00:01:53;;;;;;;;;51.20;43.00;;;;;;;;5210056;28;8771;-80
2022/08/07 00:04:24;;;;;;;;;53.80;44.40;;;;;;;;5193570;28;8786;-79
2022/08/07 00:06:55;;;;;;;;;52.60;44.40;;;;;;;;5221240;28;8856;-80
2022/08/07 00:09:26;;;;;;;;;51.00;41.40;;;;;;;;5189716;28;8773;-81
2022/08/07 00:11:57;;;;;;;;;48.80;41.80;;;;;;;;5171433;28;8803;-75
2022/08/07 00:14:29;;;;;;;;;56.80;46.80;;;;;;;;5193396;28;8827;-78
2022/08/07 00:17:18;;;;;;;;;52.40;43.80;;;;;;;;5195854;28;8941;-78
2022/08/07 00:19:49;;;;;;;;;49.00;41.80;;;;;;;;5227408;28;8782;-78
2022/08/07 00:22:20;;;;;;;;;52.50;44.00;;;;;;;;5193247;28;8809;-78
2022/08/07 00:24:51;;;;;;;;;51.60;43.40;;;;;;;;5209529;28;11484;-78
2022/08/07 00:27:23;;;;;;;;;53.80;44.80;;;;;;;;5206884;28;8797;-78
2022/08/07 00:30:12;;;;;;;;;51.40;43.60;;;;;;;;5215905;28;9510;-78
2022/08/07 00:32:46;;;;;;;;;50.00;41.00;;;;;;;;5209316;28;8815;-82
2022/08/07 00:35:17;;;;;;;;;49.20;41.80;;;;;;;;5210059;28;8844;-81
2022/08/07 00:37:49;;;;;;;;;49.20;42.20;;;;;;;;5193028;28;8822;-80
2022/08/07 00:40:21;;;;;;;;;49.40;41.80;;;;;;;;5209361;28;9531;-80
2022/08/07 00:43:12;;;;;;;;;51.00;43.60;;;;;;;;5212272;28;9509;-80
2022/08/07 00:45:43;;;;;;;;;44.80;38.60;;;;;;;;5208659;28;8795;-80
2022/08/07 00:48:15;;;;;;;;;49.60;42.60;;;;;;;;5205630;28;8809;-82
2022/08/07 00:50:46;;;;;;;;;52.00;43.60;;;;;;;;5156032;28;8836;-82
2022/08/07 00:53:20;;;;;;;;;44.40;38.40;;;;;;;;5172207;28;8781;-83
2022/08/07 00:56:11;;;;;;;;;42.00;37.00;;;;;;;;5189173;28;8781;-83
2022/08/07 00:58:43;;;;;;;;;50.60;42.60;;;;;;;;5172593;28;8808;-79
2022/08/07 01:01:15;;;;;;;;;49.80;41.60;;;;;;;;5156300;28;8804;-79
2022/08/07 01:03:47;;;;;;;;;48.20;40.60;;;;;;;;5188645;28;8769;-79
2022/08/07 01:06:19;;;;;;;;;44.80;38.80;;;;;;;;5156359;28;8809;-82
2022/08/07 01:08:50;;;;;;;;;44.40;38.40;;;;;;;;5190641;28;8798;-80
2022/08/07 01:11:22;;;;;;;;;47.00;40.60;;;;;;;;5226191;28;8834;-83
2022/08/07 01:13:54;;;;;;;;;46.20;40.20;;;;;;;;5191990;28;8783;-82
2022/08/07 01:16:25;;;;;;;;;47.60;41.20;;;;;;;;5192413;28;8790;-80
2022/08/07 01:18:57;;;;;;;;;46.20;39.40;;;;;;;;5192894;28;8779;-80
2022/08/07 01:21:29;;;;;;;;;49.20;42.00;;;;;;;;5225109;28;8830;-79
2022/08/07 01:24:02;;;;;;;;;48.40;41.20;;;;;;;;5171150;28;8795;-77
2022/08/07 01:26:33;;;;;;;;;45.20;39.00;;;;;;;;5180635;28;8810;-78
2022/08/07 01:29:04;;;;;;;;;46.60;39.80;;;;;;;;5209461;28;8786;-78
2022/08/07 01:31:37;;;;;;;;;42.20;37.20;;;;;;;;5197838;28;8833;-78
2022/08/07 01:34:09;;;;;;;;;50.00;42.00;;;;;;;;5200420;28;8819;-77
2022/08/07 01:36:45;;;;;;;;;46.80;40.00;;;;;;;;5200873;28;8775;-77
2022/08/07 01:39:18;;;;;;;;;45.40;38.60;;;;;;;;5194858;28;8818;-78
2022/08/07 01:41:58;;;;;;;;;48.60;40.60;;;;;;;;5192720;28;8856;-83
2022/08/07 01:44:32;;;;;;;;;47.40;40.80;;;;;;;;5208763;28;8787;-83
2022/08/07 01:47:04;;;;;;;;;43.00;37.40;;;;;;;;5187192;28;8927;-76
2022/08/07 01:49:36;;;;;;;;;44.80;38.40;;;;;;;;5154956;28;8871;-81
2022/08/07 01:52:08;;;;;;;;;47.00;40.40;;;;;;;;5187451;28;8808;-83
2022/08/07 01:54:41;;;;;;;;;43.20;37.60;;;;;;;;5205053;28;8813;-83
2022/08/07 01:57:21;;;;;;;;;44.80;38.80;;;;;;;;5155710;28;8777;-83
2022/08/07 01:59:59;;;;;;;;;46.80;39.40;;;;;;;;5187559;28;8781;-83
2022/08/07 02:02:34;;;;;;;;;46.00;39.40;;;;;;;;5177708;28;8796;-82
2022/08/07 02:05:07;;;;;;;;;42.00;36.60;;;;;;;;5186504;28;8801;-82
2022/08/07 02:07:43;;;;;;;;;42.75;37.25;;;;;;;;5187774;28;8805;-82
2022/08/07 02:10:15;;;;;;;;;39.60;35.00;;;;;;;;5174678;28;8779;-82
2022/08/07 02:13:06;;;;;;;;;35.40;32.40;;;;;;;;5181746;28;8891;-80
2022/08/07 02:15:50;;;;;;;;;42.00;36.75;;;;;;;;5156052;28;8809;-81
2022/08/07 02:18:40;;;;;;;;;41.25;36.25;;;;;;;;5189283;28;8792;-80
2022/08/07 02:21:31;;;;;;;;;37.25;34.00;;;;;;;;5193471;28;9545;-78
2022/08/07 02:24:03;;;;;;;;;37.75;34.00;;;;;;;;5211831;28;8802;-80
2022/08/07 02:26:53;;;;;;;;;36.25;33.50;;;;;;;;5197865;28;9552;-81
2022/08/07 02:29:26;;;;;;;;;36.50;33.75;;;;;;;;5195473;28;8801;-81
2022/08/07 02:32:02;;;;;;;;;35.50;33.25;;;;;;;;5195711;28;8794;-80
2022/08/07 02:34:34;;;;;;;;;37.25;33.75;;;;;;;;5195120;28;8791;-78
2022/08/07 02:37:25;;;;;;;;;36.25;33.25;;;;;;;;5211444;28;8767;-77
2022/08/07 02:39:57;;;;;;;;;33.50;32.00;;;;;;;;5198929;28;8815;-75
2022/08/07 02:42:29;;;;;;;;;31.75;30.75;;;;;;;;5195020;28;8793;-75
2022/08/07 02:45:19;;;;;;;;;31.00;30.00;;;;;;;;5194285;28;8813;-76
2022/08/07 02:47:50;;;;;;;;;31.25;30.25;;;;;;;;5175103;28;8788;-76
2022/08/07 02:50:23;;;;;;;;;26.00;26.00;;;;;;;;5198522;28;8829;-76
2022/08/07 02:53:18;;;;;;;;;28.25;28.25;;;;;;;;5214123;28;8812;-77
2022/08/07 02:55:51;;;;;;;;;30.50;29.75;;;;;;;;5190538;28;8817;-76
2022/08/07 02:58:23;;;;;;;;;31.50;30.25;;;;;;;;5175966;28;8823;-77
2022/08/07 03:00:56;;;;;;;;;33.50;32.00;;;;;;;;5178343;28;8787;-82
2022/08/07 03:03:30;;;;;;;;;36.25;32.25;;;;;;;;5194520;28;8864;-79
2022/08/07 03:06:01;;;;;;;;;30.25;29.50;;;;;;;;5228833;28;8791;-77
2022/08/07 03:08:33;;;;;;;;;29.75;29.50;;;;;;;;5194478;28;8797;-77
2022/08/07 03:11:05;;;;;;;;;33.50;32.00;;;;;;;;5178316;28;8826;-79
2022/08/07 03:13:42;;;;;;;;;33.25;32.00;;;;;;;;5210990;28;8779;-80
2022/08/07 03:16:32;;;;;;;;;33.00;31.25;;;;;;;;5213480;28;8787;-77
2022/08/07 03:19:04;;;;;;;;;33.00;31.75;;;;;;;;5209414;28;8925;-78
2022/08/07 03:21:36;;;;;;;;;29.25;29.25;;;;;;;;5196354;28;8848;-78
2022/08/07 03:24:07;;;;;;;;;23.00;23.00;;;;;;;;5177361;28;8811;-78
2022/08/07 03:26:39;;;;;;;;;27.00;27.00;;;;;;;;5196502;28;8860;-78
2022/08/07 03:29:12;;;;;;;;;29.25;29.00;;;;;;;;5207300;28;8802;-82
2022/08/07 03:31:46;;;;;;;;;26.50;26.50;;;;;;;;5190664;28;8812;-80
2022/08/07 03:34:20;;;;;;;;;31.00;30.00;;;;;;;;5188070;28;8823;-80
2022/08/07 03:36:52;;;;;;;;;28.50;28.50;;;;;;;;5210256;28;8802;-81
2022/08/07 03:39:42;;;;;;;;;29.25;29.00;;;;;;;;5189457;28;8817;-78
2022/08/07 03:42:17;;;;;;;;;31.75;30.75;;;;;;;;5194065;28;8779;-81
2022/08/07 03:44:51;;;;;;;;;33.00;31.25;;;;;;;;5194307;28;8795;-76
2022/08/07 03:47:23;;;;;;;;;27.25;27.25;;;;;;;;5210342;28;8780;-81
2022/08/07 03:49:56;;;;;;;;;29.25;29.00;;;;;;;;5210061;28;8884;-79
2022/08/07 03:52:30;;;;;;;;;28.50;28.50;;;;;;;;5194141;28;8846;-78
2022/08/07 03:55:05;;;;;;;;;30.00;29.50;;;;;;;;5209666;28;8803;-76
2022/08/07 03:57:37;;;;;;;;;29.50;29.00;;;;;;;;5210117;28;8790;-76
2022/08/07 04:00:10;;;;;;;;;30.50;29.75;;;;;;;;5188794;28;8787;-76
2022/08/07 04:02:47;;;;;;;;;33.00;31.25;;;;;;;;5189114;28;8858;-76
2022/08/07 04:05:37;;;;;;;;;28.75;28.75;;;;;;;;5186960;28;8823;-76
2022/08/07 04:08:11;;;;;;;;;29.50;29.00;;;;;;;;5172470;28;8809;-76
2022/08/07 04:10:43;;;;;;;;;30.00;29.25;;;;;;;;5171888;28;8835;-79
2022/08/07 04:13:16;;;;;;;;;34.25;31.75;;;;;;;;5172554;28;8797;-75
2022/08/07 04:15:47;;;;;;;;;36.25;33.25;;;;;;;;5188333;28;8808;-79
2022/08/07 04:18:18;;;;;;;;;50.80;42.40;;;;;;;;5188339;28;8882;-80
2022/08/07 04:20:51;;;;;;;;;44.80;38.40;;;;;;;;5188489;28;8792;-82
2022/08/07 04:23:24;;;;;;;;;37.60;34.00;;;;;;;;5155446;28;8785;-83
2022/08/07 04:25:56;;;;;;;;;38.40;34.80;;;;;;;;5189061;28;8788;-80
2022/08/07 04:28:27;;;;;;;;;41.00;35.80;;;;;;;;5189005;28;8805;-83
2022/08/07 04:31:17;;;;;;;;;44.80;38.60;;;;;;;;5174594;28;8824;-82
2022/08/07 04:33:48;;;;;;;;;36.00;31.75;;;;;;;;5188287;28;8781;-81
2022/08/07 04:36:20;;;;;;;;;31.75;30.75;;;;;;;;5167594;28;8968;-81
2022/08/07 04:38:51;;;;;;;;;27.00;27.00;;;;;;;;5169490;28;8844;-84
2022/08/07 04:41:22;;;;;;;;;31.00;30.00;;;;;;;;5170005;28;8845;-81
2022/08/07 04:43:56;;;;;;;;;27.75;27.75;;;;;;;;5152943;28;9348;-81
2022/08/07 04:46:58;;;;;;;;;36.25;33.75;;;;;;;;5172121;28;8804;-80
2022/08/07 04:49:56;;;;;;;;;36.25;32.75;;;;;;;;5173659;28;8801;-81
2022/08/07 04:52:28;;;;;;;;;33.00;31.00;;;;;;;;5190521;28;8815;-82
2022/08/07 04:55:24;;;;;;;;;33.50;31.25;;;;;;;;5164491;28;8792;-82
2022/08/07 04:58:03;;;;;;;;;32.00;30.75;;;;;;;;5177237;28;8793;-84
2022/08/07 05:00:45;;;;;;;;;32.50;31.00;;;;;;;;5186228;28;8797;-84
2022/08/07 05:03:16;;;;;;;;;31.00;30.00;;;;;;;;5187495;28;8797;-85
2022/08/07 05:06:10;;;;;;;;;25.25;25.25;;;;;;;;5154159;28;9605;-85
2022/08/07 05:08:47;;;;;;;;;31.50;30.50;;;;;;;;5146460;28;8793;-83
2022/08/07 05:11:22;;;;;;;;;30.75;29.75;;;;;;;;5170497;28;8804;-83
2022/08/07 05:14:20;;;;;;;;;29.75;29.00;;;;;;;;5161666;28;8812;-83
2022/08/07 05:16:56;;;;;;;;;35.00;32.50;;;;;;;;5151079;28;8797;-81
2022/08/07 05:19:43;;;;;;;;;32.50;30.75;;;;;;;;5170092;28;8809;-74
2022/08/07 05:22:17;;;;;;;;;35.25;32.25;;;;;;;;5186656;28;8820;-73
2022/08/07 05:24:50;;;;;;;;;33.50;31.25;;;;;;;;5193049;28;8794;-80
2022/08/07 05:27:22;;;;;;;;;37.00;33.50;;;;;;;;5206637;28;8799;-81
2022/08/07 05:29:56;;;;;;;;;28.00;28.00;;;;;;;;5191521;28;8897;-80
2022/08/07 05:32:47;;;;;;;;;25.00;25.00;;;;;;;;5208291;28;8803;-81
2022/08/07 05:35:18;;;;;;;;;20.00;20.00;;;;;;;;5192368;28;8771;-80
2022/08/07 05:37:50;;;;;;;;;30.75;30.00;;;;;;;;5226189;28;8795;-81
2022/08/07 05:40:40;;;;;;;;;30.00;29.25;;;;;;;;5212072;28;8795;-81
2022/08/07 05:43:12;;;;;;;;;23.50;23.50;;;;;;;;5193843;28;8810;-81
2022/08/07 05:45:43;;;;;;;;;22.50;22.50;;;;;;;;5209622;28;9521;-80
2022/08/07 05:48:16;;;;;;;;;19.75;19.75;;;;;;;;5216515;28;8753;-80
2022/08/07 05:50:50;;;;;;;;;21.50;21.50;;;;;;;;5231632;28;8814;-81
2022/08/07 05:53:39;;;;;;;;;26.50;26.50;;;;;;;;5216952;28;8799;-80
2022/08/07 05:56:13;;;;;;;;;23.00;23.00;;;;;;;;5196569;28;8810;-81
2022/08/07 05:58:49;;;;;;;;;24.75;24.75;;;;;;;;5193450;28;8798;-81
2022/08/07 06:01:22;;;;;;;;;22.50;22.50;;;;;;;;5191459;28;8857;-82
2022/08/07 06:03:54;;;;;;;;;25.00;25.00;;;;;;;;5191485;28;8798;-79
2022/08/07 06:06:26;;;;;;;;;24.25;24.25;;;;;;;;5191741;28;8779;-80
2022/08/07 06:09:00;;;;;;;;;24.75;24.75;;;;;;;;5191840;28;8779;-80
2022/08/07 06:11:34;;;;;;;;;32.25;30.25;;;;;;;;5207696;28;8822;-80
2022/08/07 06:14:05;;;;;;;;;29.50;29.00;;;;;;;;5207890;28;8811;-80
2022/08/07 06:16:37;;;;;;;;;24.25;24.25;;;;;;;;5191754;28;8789;-82
2022/08/07 06:19:12;;;;;;;;;24.25;24.25;;;;;;;;5207951;28;9522;-80
2022/08/07 06:21:45;;;;;;;;;20.00;20.00;;;;;;;;5191508;28;8787;-80
2022/08/07 06:24:17;;;;;;;;;22.00;22.00;;;;;;;;5175327;28;8852;-81
2022/08/07 06:26:48;;;;;;;;;24.75;24.75;;;;;;;;5183132;28;8905;-79
2022/08/07 06:29:25;;;;;;;;;24.75;24.75;;;;;;;;5204520;28;8794;-81
2022/08/07 06:31:59;;;;;;;;;23.25;23.25;;;;;;;;5197437;28;8810;-80
2022/08/07 06:34:48;;;;;;;;;19.50;19.25;;;;;;;;5207884;28;8790;-79
2022/08/07 06:37:19;;;;;;;;;23.00;23.00;;;;;;;;5174622;28;8786;-80
2022/08/07 06:39:52;;;;;;;;;19.75;19.75;;;;;;;;5207406;28;8799;-79
2022/08/07 06:42:32;;;;;;;;;24.75;24.75;;;;;;;;5207474;28;8798;-79
2022/08/07 06:45:17;;;;;;;;;23.00;23.00;;;;;;;;5191595;28;8794;-79
2022/08/07 06:47:51;;;;;;;;;15.50;15.50;;;;;;;;5175277;28;8783;-79
2022/08/07 06:50:22;;;;;;;;;20.75;20.75;;;;;;;;5191216;28;8803;-78
2022/08/07 06:52:55;;;;;;;;;19.25;19.25;;;;;;;;5207110;28;8834;-78
2022/08/07 06:55:44;;;;;;;;;22.00;22.00;;;;;;;;5210709;28;8801;-78
2022/08/07 06:58:18;;;;;;;;;20.25;20.25;;;;;;;;5191515;28;8795;-78
2022/08/07 07:00:58;;;;;;;;;22.75;22.75;;;;;;;;5190799;28;8807;-79
2022/08/07 07:03:30;;;;;;;;;19.75;19.75;;;;;;;;5190999;28;8791;-79
2022/08/07 07:06:01;;;;;;;;;11.75;11.75;;;;;;;;5207619;28;8798;-78
2022/08/07 07:08:32;;;;;;;;;21.00;21.00;;;;;;;;5208504;28;8775;-78
2022/08/07 07:11:03;;;;;;;;;24.00;24.00;;;;;;;;5194691;28;8807;-77
2022/08/07 07:13:37;;;;;;;;;20.50;20.50;;;;;;;;5194963;28;8775;-79
2022/08/07 07:16:20;;;;;;;;;21.50;21.50;;;;;;;;5210730;28;8933;-79
2022/08/07 07:18:56;;;;;;;;;23.25;23.25;;;;;;;;5211169;28;8786;-78
2022/08/07 07:21:31;;;;;;;;;21.25;21.25;;;;;;;;5194772;28;8818;-78
2022/08/07 07:24:03;;;;;;;;;22.50;22.50;;;;;;;;5194531;28;8775;-79
2022/08/07 07:26:35;;;;;;;;;20.00;20.00;;;;;;;;5228512;28;8779;-78
2022/08/07 07:29:16;;;;;;;;;18.75;18.50;;;;;;;;5228888;28;8802;-79
2022/08/07 07:31:50;;;;;;;;;20.00;20.00;;;;;;;;5210677;28;8807;-79
2022/08/07 07:34:43;;;;;;;;;20.50;20.50;;;;;;;;5197820;28;8795;-79
2022/08/07 07:37:15;;;;;;;;;17.00;17.00;;;;;;;;5194136;28;8860;-79
2022/08/07 07:39:47;;;;;;;;;21.75;21.75;;;;;;;;5194896;28;8924;-79
2022/08/07 07:42:20;;;;;;;;;19.00;19.00;;;;;;;;5210707;28;9525;-78
2022/08/07 07:44:53;;;;;;;;;19.75;19.75;;;;;;;;5194085;28;8783;-79
2022/08/07 07:47:24;;;;;;;;;20.75;20.75;;;;;;;;5193808;28;8806;-78
2022/08/07 07:49:56;;;;;;;;;20.25;20.25;;;;;;;;5177858;28;8807;-78
2022/08/07 07:52:29;;;;;;;;;18.50;18.50;;;;;;;;5177761;28;8814;-79
2022/08/07 07:55:02;;;;;;;;;18.25;18.25;;;;;;;;5193767;28;8814;-79
2022/08/07 07:57:34;;;;;;;;;17.00;17.00;;;;;;;;5210599;28;8797;-77
2022/08/07 08:00:06;;;;;;;;;17.25;16.75;;;;;;;;5193683;28;8802;-77
2022/08/07 08:02:44;;;;;;;;;18.25;18.25;;;;;;;;5210924;28;8779;-80
2022/08/07 08:05:16;;;;;;;;;15.75;15.75;;;;;;;;5194098;28;8787;-78
2022/08/07 08:07:47;;;;;;;;;16.25;16.25;;;;;;;;5177366;28;8917;-78
2022/08/07 08:10:18;;;;;;;;;17.00;17.00;;;;;;;;5210319;28;8795;-78
2022/08/07 08:12:50;;;;;;;;;18.00;18.00;;;;;;;;5193294;28;8833;-80
2022/08/07 08:15:22;;;;;;;;;19.00;19.00;;;;;;;;5189582;28;9589;-81
2022/08/07 08:17:56;;;;;;;;;18.50;18.50;;;;;;;;5206328;28;8807;-80
2022/08/07 08:20:30;;;;;;;;;20.25;20.25;;;;;;;;5204955;28;8805;-80
2022/08/07 08:28:43;;;;;;;;;18.50;18.50;;;;;;;;5205862;28;8796;-80
2022/08/07 08:31:16;;;;;;;;;21.00;21.00;;;;;;;;5205865;28;9531;-81
2022/08/07 08:33:50;;;;;;;;;18.50;18.50;;;;;;;;5206467;28;8792;-81
2022/08/07 08:36:23;;;;;;;;;19.00;19.00;;;;;;;;5209204;28;8789;-80
2022/08/07 08:38:55;;;;;;;;;16.00;16.00;;;;;;;;5210289;28;9696;-81
2022/08/07 08:41:30;;;;;;;;;16.00;16.00;;;;;;;;5194269;28;8800;-80
2022/08/07 08:44:07;;;;;;;;;17.75;17.75;;;;;;;;5193956;28;8819;-82
2022/08/07 08:46:38;;;;;;;;;14.50;14.50;;;;;;;;5206133;28;8800;-82
2022/08/07 08:49:14;;;;;;;;;17.50;17.50;;;;;;;;5189510;28;8824;-82
2022/08/07 08:52:11;;;;;;;;;21.00;21.00;;;;;;;;5205262;28;8828;-82
2022/08/07 08:54:46;;;;;;;;;17.50;17.50;;;;;;;;5205784;28;8796;-82
2022/08/07 08:57:36;;;;;;;;;19.00;19.00;;;;;;;;5188873;28;8919;-82
2022/08/07 09:00:08;;;;;;;;;15.50;15.50;;;;;;;;5188434;28;8947;-82
2022/08/07 09:03:11;;;;;;;;;17.50;17.50;;;;;;;;5206438;28;8935;-82
2022/08/07 09:05:50;;;;;;;;;18.00;18.00;;;;;;;;5188837;28;8818;-82
2022/08/07 09:08:31;;;;;;;;;18.00;18.00;;;;;;;;5188742;28;9511;-81
2022/08/07 09:11:05;;;;;;;;;19.00;19.00;;;;;;;;5188557;28;9620;-82
2022/08/07 09:14:13;;;;;;;;;19.50;19.50;;;;;;;;5191494;28;9428;-81
2022/08/07 09:16:47;;;;;;;;;17.75;17.50;;;;;;;;5204807;28;8796;-81
2022/08/07 09:19:24;;;;;;;;;18.25;18.25;;;;;;;;5188453;28;8807;-82
2022/08/07 09:22:39;;;;;;;;;19.50;19.25;;;;;;;;5204835;28;9523;-82
2022/08/07 09:25:15;;;;;;;;;14.00;13.75;;;;;;;;5172065;28;8824;-82
2022/08/07 09:27:49;;;;;;;;;18.00;18.00;;;;;;;;5204581;28;9543;-82
2022/08/07 09:30:22;;;;;;;;;17.50;17.50;;;;;;;;5204577;28;8831;-82
2022/08/07 09:32:59;;;;;;;;;19.25;19.25;;;;;;;;5187891;28;8881;-82
2022/08/07 09:35:39;;;;;;;;;16.25;16.25;;;;;;;;5188212;28;8846;-82
2022/08/07 09:38:14;;;;;;;;;17.75;17.75;;;;;;;;5188464;28;8858;-82
2022/08/07 09:40:53;;;;;;;;;17.75;17.75;;;;;;;;5205868;28;9533;-82
2022/08/07 09:43:30;;;;;;;;;18.00;17.50;;;;;;;;5188098;28;8850;-82
2022/08/07 09:46:04;;;;;;;;;16.00;16.00;;;;;;;;5204401;28;8813;-82
2022/08/07 09:48:38;;;;;;;;;21.75;21.75;;;;;;;;5188700;28;8848;-83
2022/08/07 09:51:12;;;;;;;;;17.00;17.00;;;;;;;;5187895;28;8840;-82
2022/08/07 09:53:44;;;;;;;;;16.25;16.25;;;;;;;;5187483;28;8927;-82
2022/08/07 09:56:53;;;;;;;;;19.50;19.50;;;;;;;;5190888;28;8799;-82
2022/08/07 09:59:43;;;;;;;;;14.75;14.75;;;;;;;;5188519;28;8812;-81
2022/08/07 10:02:40;;;;;;;;;17.00;17.00;;;;;;;;5204639;28;8796;-81
2022/08/07 10:05:31;;;;;;;;;17.00;17.00;;;;;;;;5174754;28;8917;-82
2022/08/07 10:08:01;;;;;;;;;19.25;19.25;;;;;;;;5193242;28;8871;-82
2022/08/07 10:10:42;;;;;;;;;15.00;15.00;;;;;;;;5212057;28;8776;-82
2022/08/07 10:13:13;;;;;;;;;14.25;14.25;;;;;;;;5194546;28;9646;-82
2022/08/07 10:15:44;;;;;;;;;17.50;17.50;;;;;;;;5204894;28;9022;-82
2022/08/07 10:18:38;;;;;;;;;17.33;17.33;;;;;;;;5187907;28;8777;-82
2022/08/07 10:21:27;;;;;;;;;17.50;17.50;;;;;;;;5179673;28;12250;-82
2022/08/07 10:24:17;;;;;;;;;17.75;17.75;;;;;;;;5189863;28;8815;-82
2022/08/07 10:27:04;;;;;;;;;17.00;17.00;;;;;;;;5187327;28;8819;-82
2022/08/07 10:29:34;;;;;;;;;16.25;16.25;;;;;;;;5187397;28;8804;-80
2022/08/07 10:32:21;;;;;;;;;19.33;19.33;;;;;;;;5203613;28;8804;-81
2022/08/07 10:35:04;;;;;;;;;18.50;18.50;;;;;;;;5203709;28;11670;-82
2022/08/07 10:37:44;;;;;;;;;18.00;18.00;;;;;;;;5204038;28;8804;-82
2022/08/07 10:40:40;;;;;;;;;16.50;16.50;;;;;;;;5204938;28;8814;-82
2022/08/07 10:43:17;;;;;;;;;20.00;20.00;;;;;;;;5188410;28;8831;-81
2022/08/07 10:45:51;;;;;;;;;15.75;15.75;;;;;;;;5192006;28;8796;-81
2022/08/07 10:48:40;;;;;;;;;15.75;15.75;;;;;;;;5191352;28;8866;-81
2022/08/07 10:51:11;;;;;;;;;19.25;19.25;;;;;;;;5191193;28;8848;-81
2022/08/07 10:53:54;;;;;;;;;19.00;19.00;;;;;;;;5191242;28;8793;-83
2022/08/07 10:56:39;;;;;;;;;17.50;17.50;;;;;;;;5191058;28;8795;-81
2022/08/07 10:59:34;;;;;;;;;13.50;13.25;;;;;;;;5207644;28;8886;-83
2022/08/07 11:02:24;;;;;;;;;15.00;15.00;;;;;;;;5207838;28;8811;-83
2022/08/07 11:05:39;;;;;;;;;17.50;17.50;;;;;;;;5193449;28;8915;-83
2022/08/07 11:08:10;;;;;;;;;17.00;17.00;;;;;;;;5191706;28;8795;-83
2022/08/07 11:11:02;;;;;;;;;19.00;19.00;;;;;;;;5193402;28;8814;-80
2022/08/07 11:13:37;;;;;;;;;18.50;18.50;;;;;;;;5191043;28;8814;-82
2022/08/07 11:16:10;;;;;;;;;22.50;22.00;;;;;;;;5209658;28;8809;-82
2022/08/07 11:18:45;;;;;;;;;19.25;19.25;;;;;;;;5193962;28;8881;-82
2022/08/07 11:21:22;;;;;;;;;20.50;20.50;;;;;;;;5194553;28;8838;-82
2022/08/07 11:23:57;;;;;;;;;19.50;19.50;;;;;;;;5196506;28;8843;-81
2022/08/07 11:26:43;;;;;;;;;20.50;20.50;;;;;;;;5199134;28;8861;-83
2022/08/07 11:29:33;;;;;;;;;16.00;16.00;;;;;;;;5199033;28;8819;-83
2022/08/07 11:32:07;;;;;;;;;18.50;18.50;;;;;;;;5195631;28;9558;-82
2022/08/07 11:34:44;;;;;;;;;20.75;20.75;;;;;;;;5194466;28;8846;-81
2022/08/07 11:37:15;;;;;;;;;19.00;19.00;;;;;;;;5194428;28;8785;-81
2022/08/07 11:40:04;;;;;;;;;16.00;16.00;;;;;;;;5196415;28;8815;-79
2022/08/07 11:42:35;;;;;;;;;17.00;17.00;;;;;;;;5201599;28;8814;-76
2022/08/07 11:45:14;;;;;;;;;17.25;17.25;;;;;;;;5208751;28;8825;-75
2022/08/07 11:47:55;;;;;;;;;19.00;19.00;;;;;;;;5190844;28;8788;-77
2022/08/07 11:50:33;;;;;;;;;18.25;18.25;;;;;;;;5206771;28;8820;-77
2022/08/07 11:53:08;;;;;;;;;20.25;20.25;;;;;;;;5208241;28;8821;-81
2022/08/07 11:56:01;;;;;;;;;20.50;20.50;;;;;;;;5187451;28;9553;-80
2022/08/07 11:59:09;;;;;;;;;19.25;19.25;;;;;;;;5187307;28;8925;-78
2022/08/07 12:01:43;;;;;;;;;17.50;17.50;;;;;;;;5187208;28;8818;-77
2022/08/07 12:04:26;;;;;;;;;18.75;18.75;;;;;;;;5173397;28;9004;-79
2022/08/07 12:07:16;;;;;;;;;17.00;17.00;;;;;;;;5185917;28;8811;-79
2022/08/07 12:09:58;;;;;;;;;15.00;15.00;;;;;;;;5192254;28;8860;-80
2022/08/07 12:12:33;;;;;;;;;16.00;16.00;;;;;;;;5212161;28;8807;-80
2022/08/07 12:15:08;;;;;;;;;19.50;19.50;;;;;;;;5171294;28;8838;-79
2022/08/07 12:17:42;;;;;;;;;14.25;14.25;;;;;;;;5186304;28;8861;-78
2022/08/07 12:20:22;;;;;;;;;20.75;20.75;;;;;;;;5185931;28;8787;-79
2022/08/07 12:22:52;;;;;;;;;20.75;20.75;;;;;;;;5207514;28;8812;-79
2022/08/07 12:25:55;;;;;;;;;14.33;14.33;;;;;;;;5206806;28;9608;-80
2022/08/07 12:28:43;;;;;;;;;17.50;17.50;;;;;;;;5185368;28;8815;-79
2022/08/07 12:31:23;;;;;;;;;15.25;15.25;;;;;;;;5186542;28;8818;-79
2022/08/07 12:33:56;;;;;;;;;17.00;17.00;;;;;;;;5170245;28;8779;-79
2022/08/07 12:36:28;;;;;;;;;18.25;18.25;;;;;;;;5186313;28;9604;-78
2022/08/07 12:39:02;;;;;;;;;17.25;17.25;;;;;;;;5170041;28;9519;-80
2022/08/07 12:41:34;;;;;;;;;14.75;14.75;;;;;;;;5170203;28;8894;-79
2022/08/07 12:44:24;;;;;;;;;15.75;15.75;;;;;;;;5187113;28;8822;-78
2022/08/07 12:46:59;;;;;;;;;20.00;20.00;;;;;;;;5225183;28;8802;-79
2022/08/07 12:49:49;;;;;;;;;18.00;18.00;;;;;;;;5191878;28;8812;-79
2022/08/07 12:53:14;;;;;;;;;17.00;17.00;;;;;;;;5185636;28;8827;-80
2022/08/07 12:55:45;;;;;;;;;18.25;18.25;;;;;;;;5144053;28;8906;-80
2022/08/07 12:58:16;;;;;;;;;16.00;16.00;;;;;;;;5180060;28;8783;-80
2022/08/07 13:00:58;;;;;;;;;16.75;16.75;;;;;;;;5170984;28;11678;-81
2022/08/07 13:03:51;;;;;;;;;18.00;18.00;;;;;;;;5188636;28;8818;-81
2022/08/07 13:06:40;;;;;;;;;17.25;17.25;;;;;;;;5169266;28;9664;-80
2022/08/07 13:09:29;;;;;;;;;17.00;17.00;;;;;;;;5172358;28;8817;-79
2022/08/07 13:12:19;;;;;;;;;13.75;13.75;;;;;;;;5186116;28;8830;-77
2022/08/07 13:15:21;;;;;;;;;17.50;17.50;;;;;;;;5185333;28;8822;-79
2022/08/07 13:18:14;;;;;;;;;14.75;14.75;;;;;;;;5194716;28;8919;-81
2022/08/07 13:20:49;;;;;;;;;15.00;15.00;;;;;;;;5206649;28;8903;-81
2022/08/07 13:23:28;;;;;;;;;16.00;16.00;;;;;;;;5206057;28;8837;-79
2022/08/07 13:26:22;;;;;;;;;15.50;15.50;;;;;;;;5189661;28;9546;-80
2022/08/07 13:29:10;;;;;;;;;17.75;17.75;;;;;;;;5199751;28;8804;-80
2022/08/07 13:31:49;;;;;;;;;15.75;15.75;;;;;;;;5188644;28;8836;-83
2022/08/07 13:34:30;;;;;;;;;15.75;15.75;;;;;;;;5188294;28;8847;-80
2022/08/07 13:37:26;;;;;;;;;15.75;15.75;;;;;;;;5188260;28;8816;-81
2022/08/07 13:40:15;;;;;;;;;16.50;16.50;;;;;;;;5204888;28;8807;-81
2022/08/07 13:42:50;;;;;;;;;17.75;17.75;;;;;;;;5198644;28;8803;-82
2022/08/07 13:45:22;;;;;;;;;15.00;15.00;;;;;;;;5165136;28;8822;-82
2022/08/07 13:47:56;;;;;;;;;16.25;16.25;;;;;;;;5222326;28;8796;-83
2022/08/07 13:50:28;;;;;;;;;15.75;15.75;;;;;;;;5193478;28;8828;-78
2022/08/07 13:53:00;;;;;;;;;17.25;17.25;;;;;;;;5188448;28;8852;-79
2022/08/07 13:55:33;;;;;;;;;16.00;16.00;;;;;;;;5205651;28;8812;-79
2022/08/07 14:00:57;;;;;;;;;17.00;17.00;;;;;;;;5204330;28;8886;-79
2022/08/07 14:03:30;;;;;;;;;16.50;16.50;;;;;;;;5187204;28;8819;-80
2022/08/07 14:06:01;;;;;;;;;16.50;16.50;;;;;;;;5187529;28;8812;-77
2022/08/07 14:08:52;;;;;;;;;16.33;16.00;;;;;;;;5205022;28;8890;-78
2022/08/07 14:11:24;;;;;;;;;16.50;16.50;;;;;;;;5186995;28;8828;-74
2022/08/07 14:14:02;;;;;;;;;13.00;13.00;;;;;;;;5187282;28;8808;-74
2022/08/07 14:16:35;;;;;;;;;17.25;17.25;;;;;;;;5190163;28;8925;-80
2022/08/07 14:19:13;;;;;;;;;14.50;14.50;;;;;;;;5166284;28;8799;-79
2022/08/07 14:21:46;;;;;;;;;15.75;15.75;;;;;;;;5184010;28;8881;-79
2022/08/07 14:24:40;;;;;;;;;14.00;14.00;;;;;;;;5183602;28;8787;-77
2022/08/07 14:27:13;;;;;;;;;13.75;13.75;;;;;;;;5167093;28;8815;-80
2022/08/07 14:29:49;;;;;;;;;15.50;15.50;;;;;;;;5182874;28;8807;-78
2022/08/07 14:32:21;;;;;;;;;14.75;14.75;;;;;;;;5202936;28;8839;-79
2022/08/07 14:34:53;;;;;;;;;14.75;14.75;;;;;;;;5187486;28;9562;-80
2022/08/07 14:37:44;;;;;;;;;14.25;14.25;;;;;;;;5204848;28;9561;-80
2022/08/07 14:40:17;;;;;;;;;14.50;14.50;;;;;;;;5187319;28;9499;-81
2022/08/07 14:43:05;;;;;;;;;15.75;15.75;;;;;;;;5197558;28;8970;-80
2022/08/07 14:45:45;;;;;;;;;17.75;17.75;;;;;;;;5175395;28;8815;-78
2022/08/07 14:48:21;;;;;;;;;16.75;16.75;;;;;;;;5197031;28;8801;-78
2022/08/07 14:51:12;;;;;;;;;16.50;16.50;;;;;;;;5200696;28;8837;-83
2022/08/07 14:53:44;;;;;;;;;15.25;15.25;;;;;;;;5183452;28;8807;-79
2022/08/07 14:56:18;;;;;;;;;7.50;7.50;;;;;;;;5203223;28;8773;-80
2022/08/07 14:58:50;;;;;;;;;13.25;13.25;;;;;;;;5185219;28;8800;-79
2022/08/07 15:01:27;;;;;;;;;16.25;16.25;;;;;;;;5201854;28;8793;-80
2022/08/07 15:03:58;;;;;;;;;18.50;18.50;;;;;;;;5205096;28;8791;-83
2022/08/07 15:06:31;;;;;;;;;18.50;18.50;;;;;;;;5187110;28;8808;-81
2022/08/07 15:09:04;;;;;;;;;20.75;20.75;;;;;;;;5186552;28;9582;-79
2022/08/07 15:11:56;;;;;;;;;20.00;20.00;;;;;;;;5187927;28;8902;-83
2022/08/07 15:14:29;;;;;;;;;19.00;19.00;;;;;;;;5203159;28;8804;-80
2022/08/07 15:17:10;;;;;;;;;17.75;17.75;;;;;;;;5168506;28;8815;-78
2022/08/07 15:19:48;;;;;;;;;21.25;21.00;;;;;;;;5169671;28;8781;-78
2022/08/07 15:22:22;;;;;;;;;20.25;20.25;;;;;;;;5177845;28;8803;-81
2022/08/07 15:24:53;;;;;;;;;22.75;22.75;;;;;;;;5185085;28;9495;-78
2022/08/07 15:27:44;;;;;;;;;19.50;19.50;;;;;;;;5170519;28;8820;-77
2022/08/07 15:30:16;;;;;;;;;21.00;21.00;;;;;;;;5187593;28;8853;-79
2022/08/07 15:32:48;;;;;;;;;20.00;20.00;;;;;;;;5172552;28;8801;-80
2022/08/07 15:35:20;;;;;;;;;20.25;20.25;;;;;;;;5172059;28;8784;-83
2022/08/07 15:37:55;;;;;;;;;25.00;25.00;;;;;;;;5194943;28;8807;-83
2022/08/07 15:40:30;;;;;;;;;26.25;26.25;;;;;;;;5180261;28;8797;-79
2022/08/07 15:43:22;;;;;;;;;26.75;25.75;;;;;;;;5206560;28;8802;-81